Time;durP1;ratioP1;P1;durP2;ratioP2;P2;SDS_P1;SDS_P2;PMS_P1;PMS_P2;Temp;Humidity;BMP_temperature;BMP_pressure;BME280_temperature;BME280_humidity;BME280_pressure;Samples;Min_cycle;Max_cycle;Signal;HPM_P1;HPM_P2
2022/01/15 00:01:37;;;;;;;15.77;10.77;;;6.60;99.90;;;;;;4919277;28;89514;-35
2022/01/15 00:04:03;;;;;;;20.73;11.82;;;6.60;99.90;;;;;;4919278;28;88543;-34
2022/01/15 00:06:28;;;;;;;14.27;9.98;;;6.60;99.90;;;;;;4918556;28;90390;-37
2022/01/15 00:08:54;;;;;;;24.17;13.02;;;6.50;99.90;;;;;;4917424;28;89313;-34
2022/01/15 00:11:19;;;;;;;12.73;8.52;;;6.50;99.90;;;;;;4919453;28;87494;-41
2022/01/15 00:13:53;;;;;;;12.73;10.02;;;6.50;99.90;;;;;;4919528;28;87636;-35
2022/01/15 00:16:44;;;;;;;15.43;9.20;;;6.50;99.90;;;;;;4918436;28;89307;-33
2022/01/15 00:19:12;;;;;;;14.73;9.68;;;6.50;99.90;;;;;;4919938;28;90134;-37
2022/01/15 00:21:38;;;;;;;;;;;6.50;99.90;;;;;;4920268;28;88007;-38
2022/01/15 00:24:04;;;;;;;19.17;10.32;;;6.50;99.90;;;;;;4920923;28;87741;-34
2022/01/15 00:26:30;;;;;;;15.70;10.38;;;6.50;99.90;;;;;;4918315;28;91988;-35
2022/01/15 00:28:56;;;;;;;12.82;9.82;;;6.50;99.90;;;;;;4918600;28;89692;-37
2022/01/15 00:31:22;;;;;;;15.77;10.48;;;6.50;99.90;;;;;;4920194;28;87566;-36
2022/01/15 00:33:48;;;;;;;15.52;9.40;;;6.50;99.90;;;;;;4918265;28;87619;-39
2022/01/15 00:36:15;;;;;;;15.93;9.38;;;6.50;99.90;;;;;;4919306;28;90286;-39
2022/01/15 00:38:42;;;;;;;15.15;10.07;;;6.50;99.90;;;;;;4918577;28;89559;-36
2022/01/15 00:41:08;;;;;;;17.80;8.93;;;6.50;99.90;;;;;;4918237;28;88510;-37
2022/01/15 00:43:33;;;;;;;12.98;8.25;;;6.50;99.90;;;;;;4918459;28;87713;-36
2022/01/15 00:45:59;;;;;;;10.30;8.45;;;6.40;99.90;;;;;;4918805;28;88784;-37
2022/01/15 00:48:25;;;;;;;15.68;9.07;;;6.50;99.90;;;;;;4918647;28;89156;-44
2022/01/15 00:50:51;;;;;;;13.02;9.25;;;6.50;99.90;;;;;;4919078;28;88098;-40
2022/01/15 00:53:17;;;;;;;12.75;9.88;;;6.50;99.90;;;;;;4918480;28;87601;-39
2022/01/15 00:55:43;;;;;;;13.10;8.43;;;6.50;99.90;;;;;;4917056;28;89292;-37
2022/01/15 00:58:09;;;;;;;14.98;9.07;;;6.50;99.90;;;;;;4918203;28;89882;-38
2022/01/15 01:00:35;;;;;;;11.95;9.65;;;6.50;99.90;;;;;;4918685;28;88092;-39
2022/01/15 01:03:01;;;;;;;21.75;9.50;;;6.50;99.90;;;;;;4918453;28;88249;-35
2022/01/15 01:05:27;;;;;;;19.10;9.98;;;6.50;99.90;;;;;;4918367;28;90687;-42
2022/01/15 01:07:52;;;;;;;28.00;10.95;;;6.50;99.90;;;;;;4917560;28;89889;-37
2022/01/15 01:10:39;;;;;;;12.85;9.15;;;6.50;99.90;;;;;;4917697;28;88106;-36
2022/01/15 01:23:34;;;;;;;10.43;8.55;;;6.50;99.90;;;;;;4918449;28;88924;-40
2022/01/15 01:26:08;;;;;;;13.43;8.60;;;6.50;99.90;;;;;;4918331;28;90238;-37
2022/01/15 01:28:42;;;;;;;9.43;8.50;;;6.40;99.90;;;;;;4917993;28;89796;-35
2022/01/15 01:31:17;;;;;;;11.27;7.40;;;6.40;99.90;;;;;;4919297;28;87592;-38
2022/01/15 01:33:47;;;;;;;10.50;7.47;;;6.40;99.90;;;;;;4918329;28;87572;-39
2022/01/15 01:41:07;;;;;;;11.07;8.27;;;6.40;99.90;;;;;;4918271;28;88249;-35
2022/01/15 01:46:30;;;;;;;9.63;7.38;;;6.40;99.90;;;;;;4917986;28;90354;-37
2022/01/15 01:48:58;;;;;;;7.00;6.30;;;6.40;99.90;;;;;;4917810;28;89424;-33
2022/01/15 01:51:29;;;;;;;9.63;7.53;;;6.40;99.90;;;;;;4917699;28;87705;-39
2022/01/15 01:53:56;;;;;;;8.82;7.60;;;6.40;99.90;;;;;;4918036;28;87604;-34
2022/01/15 01:56:22;;;;;;;7.65;6.70;;;6.40;99.90;;;;;;4916151;28;89923;-34
2022/01/15 01:58:48;;;;;;;7.20;6.13;;;6.40;99.90;;;;;;4917726;28;88494;-39
2022/01/15 02:01:14;;;;;;;6.20;5.22;;;6.40;99.90;;;;;;4917669;28;88754;-36
2022/01/15 02:03:40;;;;;;;5.97;5.07;;;6.40;99.90;;;;;;4917425;28;87772;-39
2022/01/15 02:06:05;;;;;;;6.15;4.80;;;6.40;99.90;;;;;;4917800;28;90236;-35
2022/01/15 02:08:34;;;;;;;5.28;4.78;;;6.40;99.90;;;;;;4916984;28;89222;-39
2022/01/15 02:11:00;;;;;;;;;;;6.40;99.90;;;;;;4918198;28;87566;-35
2022/01/15 02:13:26;;;;;;;7.72;3.92;;;6.40;99.90;;;;;;4934884;23;87681;-31
2022/01/15 02:15:52;;;;;;;4.57;4.10;;;6.30;99.90;;;;;;4898268;28;90234;-30
2022/01/15 02:18:18;;;;;;;5.45;3.88;;;6.30;99.90;;;;;;4897377;28;89695;-31
2022/01/15 02:26:00;;;;;;;4.78;3.45;;;6.30;99.90;;;;;;4899551;28;90429;-32
2022/01/15 02:28:32;;;;;;;3.67;3.33;;;6.30;99.90;;;;;;4898223;28;89640;-31
2022/01/15 02:31:00;;;;;;;4.28;3.83;;;6.30;99.90;;;;;;4898678;28;87555;-31
2022/01/15 02:33:26;;;;;;;3.65;3.30;;;6.30;99.90;;;;;;4898701;28;87567;-31
2022/01/15 02:35:53;;;;;;;4.22;3.90;;;6.30;99.90;;;;;;4898256;28;90093;-30
2022/01/15 02:38:19;;;;;;;4.82;3.72;;;6.30;99.90;;;;;;4898282;28;89931;-34
2022/01/15 02:40:45;;;;;;;4.68;3.72;;;6.20;99.90;;;;;;4896532;28;87929;-30
2022/01/15 02:43:16;;;;;;;3.17;2.47;;;6.20;99.90;;;;;;4899129;28;88146;-32
2022/01/15 02:45:44;;;;;;;2.83;2.63;;;6.20;99.90;;;;;;4898289;28;90108;-31
2022/01/15 02:48:14;;;;;;;;;;;6.20;99.90;;;;;;4898860;28;89325;-31
2022/01/15 02:50:40;;;;;;;4.47;3.67;;;6.20;99.90;;;;;;4899322;28;88057;-31
2022/01/15 02:53:07;;;;;;;4.03;3.38;;;6.20;99.90;;;;;;4898875;28;88462;-31
2022/01/15 02:55:33;;;;;;;3.28;2.97;;;6.20;99.90;;;;;;4897721;28;90313;-31
2022/01/15 02:57:59;;;;;;;5.40;2.95;;;6.20;99.90;;;;;;4897871;28;88513;-33
2022/01/15 03:00:26;;;;;;;3.53;3.22;;;6.20;99.90;;;;;;4898515;28;88244;-31
2022/01/15 03:02:51;;;;;;;2.92;2.63;;;6.20;99.90;;;;;;4898445;28;87675;-32
2022/01/15 03:05:17;;;;;;;2.95;2.75;;;6.20;99.90;;;;;;4898420;28;90244;-30
2022/01/15 03:07:43;;;;;;;6.38;3.78;;;6.20;99.90;;;;;;4897876;28;89688;-32
2022/01/15 03:10:09;;;;;;;3.80;3.47;;;6.10;99.90;;;;;;4898507;28;87607;-30
2022/01/15 03:12:36;;;;;;;5.35;4.32;;;6.10;99.90;;;;;;4898215;28;87674;-31
2022/01/15 03:15:04;;;;;;;3.85;3.45;;;6.10;99.90;;;;;;4897600;28;90566;-31
2022/01/15 03:17:30;;;;;;;4.18;3.80;;;6.10;99.90;;;;;;4897884;28;89965;-31
2022/01/15 03:19:55;;;;;;;6.32;3.17;;;6.20;99.90;;;;;;4897869;28;87862;-30
2022/01/15 03:22:22;;;;;;;3.80;3.17;;;6.20;99.90;;;;;;4898461;28;88129;-31
2022/01/15 03:24:48;;;;;;;5.22;3.88;;;6.10;99.90;;;;;;4897755;28;90365;-31
2022/01/15 03:27:14;;;;;;;7.25;3.25;;;6.10;99.90;;;;;;4897745;28;89390;-31
2022/01/15 03:29:39;;;;;;;6.45;3.75;;;6.10;99.90;;;;;;4897918;28;88126;-31
2022/01/15 03:32:06;;;;;;;4.28;3.47;;;6.10;99.90;;;;;;4900915;28;88249;-32
2022/01/15 03:34:31;;;;;;;4.05;3.60;;;6.10;99.90;;;;;;4900681;28;89265;-31
2022/01/15 03:36:57;;;;;;;9.02;4.15;;;6.10;99.90;;;;;;4901103;28;89585;-31
2022/01/15 03:39:22;;;;;;;4.63;3.72;;;6.10;99.90;;;;;;4899095;28;88532;-35
2022/01/15 03:41:48;;;;;;;4.97;4.10;;;6.10;99.90;;;;;;4900939;28;87696;-30
2022/01/15 03:44:13;;;;;;;10.60;4.03;;;6.10;99.90;;;;;;4901118;28;90167;-31
2022/01/15 03:46:39;;;;;;;4.43;3.97;;;6.10;99.90;;;;;;4900894;28;89521;-31
2022/01/15 03:49:05;;;;;;;4.75;3.25;;;6.10;99.90;;;;;;4900897;28;87618;-32
2022/01/15 03:51:30;;;;;;;4.07;3.55;;;6.00;99.90;;;;;;4901255;28;88786;-34
2022/01/15 03:53:56;;;;;;;5.75;3.60;;;6.10;99.90;;;;;;4900493;28;90293;-29
2022/01/15 03:56:21;;;;;;;5.22;3.70;;;6.10;99.90;;;;;;4900821;28;89695;-30
2022/01/15 03:58:47;;;;;;;4.00;3.38;;;6.10;99.90;;;;;;4900357;28;87893;-31
2022/01/15 04:01:12;;;;;;;5.40;4.05;;;6.00;99.90;;;;;;4901310;28;87663;-31
2022/01/15 04:03:38;;;;;;;3.80;3.15;;;6.00;99.90;;;;;;4900491;28;89880;-30
2022/01/15 04:06:04;;;;;;;5.35;4.68;;;6.00;99.90;;;;;;4900257;28;90039;-31
2022/01/15 04:08:30;;;;;;;4.97;3.50;;;6.00;99.90;;;;;;4900947;28;87678;-33
2022/01/15 04:10:56;;;;;;;4.85;3.28;;;6.00;99.90;;;;;;4900501;28;88778;-32
2022/01/15 04:13:21;;;;;;;5.63;3.10;;;6.00;99.90;;;;;;4900448;28;90498;-31
2022/01/15 04:15:52;;;;;;;4.55;3.72;;;6.00;99.90;;;;;;4900304;28;89906;-32
2022/01/15 04:18:21;;;;;;;5.38;4.13;;;6.00;99.90;;;;;;4900665;28;88128;-31
2022/01/15 04:20:47;;;;;;;3.83;3.45;;;6.00;99.90;;;;;;4900394;28;87604;-32
2022/01/15 04:23:12;;;;;;;4.70;4.20;;;6.00;99.90;;;;;;4900675;28;89957;-31
2022/01/15 04:25:38;;;;;;;4.82;3.90;;;6.00;99.90;;;;;;4900089;28;88335;-30
2022/01/15 04:28:08;;;;;;;4.78;3.97;;;6.00;99.90;;;;;;4900445;28;87672;-33
2022/01/15 04:30:35;;;;;;;5.90;4.53;;;6.00;99.90;;;;;;4900264;28;87672;-31
2022/01/15 04:33:00;;;;;;;5.80;4.38;;;6.00;99.90;;;;;;4900213;28;90220;-30
2022/01/15 04:35:26;;;;;;;5.05;4.40;;;6.00;99.90;;;;;;4899957;28;90334;-29
2022/01/15 04:38:00;;;;;;;5.10;4.60;;;6.00;99.90;;;;;;4899899;28;87539;-31
2022/01/15 04:40:26;;;;;;;5.80;4.43;;;6.00;99.90;;;;;;4900327;28;87429;-31
2022/01/15 04:42:51;;;;;;;6.90;4.45;;;6.00;99.90;;;;;;4899553;28;90760;-34
2022/01/15 04:45:17;;;;;;;7.43;4.68;;;6.00;99.90;;;;;;4898042;28;90274;-31
2022/01/15 04:47:43;;;;;;;4.38;3.97;;;6.00;99.90;;;;;;4900426;28;87557;-32
2022/01/15 04:50:12;;;;;;;5.65;4.70;;;6.00;99.90;;;;;;4900283;28;87457;-31
2022/01/15 04:52:38;;;;;;;4.78;4.28;;;6.00;99.90;;;;;;4899855;28;90423;-30
2022/01/15 04:55:05;;;;;;;7.75;5.82;;;6.00;99.90;;;;;;4899572;28;89584;-32
2022/01/15 04:57:31;;;;;;;5.03;4.63;;;6.00;99.90;;;;;;4900203;28;87620;-30
2022/01/15 04:59:57;;;;;;;6.28;4.68;;;6.00;99.90;;;;;;4899891;28;87608;-31
2022/01/15 05:02:23;;;;;;;8.68;5.10;;;6.00;99.90;;;;;;4899549;28;90315;-31
2022/01/15 05:04:48;;;;;;;11.00;5.60;;;6.00;99.90;;;;;;4899131;28;90158;-30
2022/01/15 05:07:14;;;;;;;14.75;5.72;;;6.00;99.90;;;;;;4899955;28;89818;-31
2022/01/15 05:09:39;;;;;;;6.50;5.82;;;6.00;99.90;;;;;;4899432;28;88590;-33
2022/01/15 05:12:11;;;;;;;5.75;5.03;;;6.00;99.90;;;;;;4899710;28;90097;-31
2022/01/15 05:14:37;;;;;;;5.60;5.05;;;6.00;99.90;;;;;;4899099;28;89986;-31
2022/01/15 05:17:03;;;;;;;8.07;6.10;;;6.00;99.90;;;;;;4899519;28;87572;-31
2022/01/15 05:19:29;;;;;;;5.88;5.15;;;6.00;99.90;;;;;;4899676;28;87700;-32
2022/01/15 05:21:56;;;;;;;8.00;6.03;;;6.00;99.90;;;;;;4898769;28;96149;-31
2022/01/15 05:24:25;;;;;;;6.30;5.18;;;6.00;99.90;;;;;;4899532;28;89642;-30
2022/01/15 05:26:51;;;;;;;6.53;5.25;;;6.00;99.90;;;;;;4899504;28;87573;-32
2022/01/15 05:29:16;;;;;;;8.00;5.03;;;6.00;99.90;;;;;;4899428;28;87789;-30
2022/01/15 05:31:42;;;;;;;7.00;5.10;;;6.00;99.90;;;;;;4898855;28;92724;-31
2022/01/15 05:34:07;;;;;;;9.80;5.60;;;6.00;99.90;;;;;;4898943;28;89784;-33
2022/01/15 05:36:33;;;;;;;6.80;6.10;;;6.00;99.90;;;;;;4899557;28;88267;-30
2022/01/15 05:38:58;;;;;;;6.35;5.45;;;6.00;99.90;;;;;;4899244;28;87737;-31
2022/01/15 05:41:24;;;;;;;9.50;5.35;;;6.00;99.90;;;;;;4897277;28;90939;-32
2022/01/15 05:43:49;;;;;;;5.55;4.93;;;6.00;99.90;;;;;;4898938;28;89583;-30
2022/01/15 05:46:15;;;;;;;6.88;5.60;;;5.90;99.90;;;;;;4899267;28;87566;-32
2022/01/15 05:48:40;;;;;;;6.50;5.47;;;6.00;99.90;;;;;;4899558;28;87500;-31
2022/01/15 05:51:06;;;;;;;7.57;5.78;;;5.90;99.90;;;;;;4898951;28;90856;-32
2022/01/15 05:53:32;;;;;;;8.88;5.43;;;5.90;99.90;;;;;;4898309;28;89650;-32
2022/01/15 05:55:57;;;;;;;7.35;5.35;;;5.90;99.90;;;;;;4898850;28;88026;-30
2022/01/15 05:58:23;;;;;;;7.65;5.32;;;5.90;99.90;;;;;;4899225;28;88766;-30
2022/01/15 06:00:48;;;;;;;11.43;5.03;;;5.90;99.90;;;;;;4898821;28;92029;-32
2022/01/15 06:03:14;;;;;;;6.15;5.20;;;5.90;99.90;;;;;;4899102;28;89438;-31
2022/01/15 06:05:39;;;;;;;6.50;4.88;;;5.90;99.90;;;;;;4898839;28;87594;-33
2022/01/15 06:08:05;;;;;;;5.60;5.03;;;5.90;99.90;;;;;;4898809;28;87652;-31
2022/01/15 06:10:30;;;;;;;7.45;5.75;;;5.90;99.90;;;;;;4898978;28;90250;-30
2022/01/15 06:12:56;;;;;;;9.40;5.45;;;5.90;99.90;;;;;;4898335;28;89773;-31
2022/01/15 06:15:21;;;;;;;8.40;5.85;;;5.90;99.90;;;;;;4898820;28;88067;-31
2022/01/15 06:17:47;;;;;;;8.13;5.82;;;5.90;99.90;;;;;;4898783;28;87828;-31
2022/01/15 06:20:15;;;;;;;7.35;4.80;;;5.90;99.90;;;;;;4898453;28;90061;-30
2022/01/15 06:22:41;;;;;;;7.00;5.38;;;5.90;99.90;;;;;;4898753;28;89436;-30
2022/01/15 06:25:07;;;;;;;7.30;5.68;;;5.90;99.90;;;;;;4899171;28;89344;-29
2022/01/15 06:27:33;;;;;;;7.63;5.43;;;5.90;99.90;;;;;;4898754;28;87735;-32
2022/01/15 06:29:59;;;;;;;8.02;6.18;;;5.90;99.90;;;;;;4898670;28;90395;-31
2022/01/15 06:32:27;;;;;;;9.50;6.43;;;5.90;99.90;;;;;;4898483;28;89958;-31
2022/01/15 06:34:53;;;;;;;6.78;5.80;;;5.90;99.90;;;;;;4898053;28;87928;-31
2022/01/15 06:37:19;;;;;;;10.40;6.15;;;5.90;99.90;;;;;;4898400;28;88152;-31
2022/01/15 06:39:45;;;;;;;8.02;6.22;;;5.90;99.90;;;;;;4898482;28;89385;-33
2022/01/15 06:42:11;;;;;;;10.18;6.57;;;5.80;99.90;;;;;;4898627;28;89506;-30
2022/01/15 06:44:36;;;;;;;9.68;6.68;;;5.80;99.90;;;;;;4899087;28;87606;-31
2022/01/15 06:47:03;;;;;;;8.90;7.07;;;5.80;99.90;;;;;;4898492;28;88373;-31
2022/01/15 06:49:28;;;;;;;10.65;6.95;;;5.80;99.90;;;;;;4898494;28;90840;-31
2022/01/15 06:51:54;;;;;;;10.88;7.00;;;5.80;99.90;;;;;;4898140;28;89097;-31
2022/01/15 06:54:19;;;;;;;8.10;6.72;;;5.80;99.90;;;;;;4899181;28;89486;-30
2022/01/15 06:56:45;;;;;;;11.02;7.60;;;5.80;99.90;;;;;;4897777;28;87842;-35
2022/01/15 06:59:10;;;;;;;8.60;7.13;;;5.80;99.90;;;;;;4898425;28;90284;-31
2022/01/15 07:01:36;;;;;;;9.65;7.78;;;5.80;99.90;;;;;;4898018;28;88599;-30
2022/01/15 07:04:01;;;;;;;9.98;6.18;;;5.80;99.90;;;;;;4897388;28;91239;-32
2022/01/15 07:06:27;;;;;;;8.27;6.97;;;5.80;99.90;;;;;;4901642;28;87659;-31
2022/01/15 07:08:52;;;;;;;8.40;6.60;;;5.80;99.90;;;;;;4901402;28;90020;-31
2022/01/15 07:11:18;;;;;;;8.82;7.50;;;5.80;99.90;;;;;;4899840;28;89192;-30
2022/01/15 07:13:43;;;;;;;8.65;7.45;;;5.80;99.90;;;;;;4895776;28;88662;-34
2022/01/15 07:16:09;;;;;;;11.55;7.00;;;5.80;99.90;;;;;;4901402;28;87640;-31
2022/01/15 07:18:35;;;;;;;10.00;7.72;;;5.70;99.90;;;;;;4901149;28;90259;-32
2022/01/15 07:21:00;;;;;;;9.43;6.95;;;5.80;99.90;;;;;;4900553;28;89722;-31
2022/01/15 07:23:26;;;;;;;10.75;7.72;;;5.80;99.90;;;;;;4901557;28;87516;-32
2022/01/15 07:25:51;;;;;;;11.40;8.02;;;5.80;99.90;;;;;;4900105;28;87778;-34
2022/01/15 07:28:18;;;;;;;11.00;7.75;;;5.80;99.90;;;;;;4901142;28;90280;-30
2022/01/15 07:30:45;;;;;;;10.75;7.60;;;5.80;99.90;;;;;;4900809;28;89685;-32
2022/01/15 07:33:11;;;;;;;9.63;7.15;;;5.80;99.90;;;;;;4900904;28;87539;-31
2022/01/15 07:35:37;;;;;;;10.95;7.65;;;5.70;99.90;;;;;;4899580;28;87999;-30
2022/01/15 07:38:03;;;;;;;11.93;8.13;;;5.80;99.90;;;;;;4899642;28;90252;-30
2022/01/15 07:40:28;;;;;;;10.02;6.97;;;5.80;99.90;;;;;;4899147;28;89466;-30
2022/01/15 07:42:54;;;;;;;11.38;8.38;;;5.80;99.90;;;;;;4899351;28;89064;-29
2022/01/15 07:45:19;;;;;;;13.25;8.73;;;5.80;99.90;;;;;;4899313;28;87998;-33
2022/01/15 07:47:45;;;;;;;10.73;8.00;;;5.80;99.90;;;;;;4899322;28;90065;-31
2022/01/15 07:50:23;;;;;;;11.32;8.43;;;5.80;99.90;;;;;;4899495;28;88719;-32
2022/01/15 07:52:49;;;;;;;11.17;8.50;;;5.80;99.90;;;;;;4899439;28;89450;-31
2022/01/15 07:55:14;;;;;;;10.80;8.70;;;5.80;99.90;;;;;;4898310;28;88896;-31
2022/01/15 07:57:43;;;;;;;10.77;9.68;;;5.80;99.90;;;;;;4898979;28;90705;-30
2022/01/15 08:00:10;;;;;;;14.05;9.80;;;5.80;99.90;;;;;;4899264;28;89409;-30
2022/01/15 08:02:36;;;;;;;14.75;9.02;;;5.80;99.90;;;;;;4899148;28;89563;-34
2022/01/15 08:05:01;;;;;;;13.40;9.52;;;5.80;99.90;;;;;;4899640;28;88399;-31
2022/01/15 08:07:27;;;;;;;13.18;10.35;;;5.80;99.90;;;;;;4862635;28;90425;-31
2022/01/15 08:09:53;;;;;;;19.35;13.45;;;5.80;99.90;;;;;;4896916;28;90733;-31
2022/01/15 08:12:19;;;;;;;15.02;12.43;;;5.80;99.90;;;;;;4898241;28;90826;-31
2022/01/15 08:14:45;;;;;;;19.85;14.30;;;5.80;99.90;;;;;;4898287;28;87674;-32
2022/01/15 08:17:11;;;;;;;17.73;12.73;;;5.80;99.90;;;;;;4896798;28;90289;-32
2022/01/15 08:19:37;;;;;;;14.85;12.57;;;5.80;99.90;;;;;;4898568;28;89500;-30
2022/01/15 08:22:03;;;;;;;20.15;14.35;;;5.80;99.90;;;;;;4896426;28;90341;-32
2022/01/15 08:24:29;;;;;;;14.95;13.30;;;5.80;99.90;;;;;;4897727;28;88986;-31
2022/01/15 08:26:54;;;;;;;13.82;11.73;;;5.80;99.90;;;;;;4898079;28;90539;-30
2022/01/15 08:29:20;;;;;;;14.38;11.40;;;5.80;99.90;;;;;;4898452;28;89909;-33
2022/01/15 08:31:46;;;;;;;13.35;10.93;;;5.80;99.90;;;;;;4898739;28;89701;-30
2022/01/15 08:34:11;;;;;;;12.63;11.32;;;5.80;99.90;;;;;;4897519;28;89011;-34
2022/01/15 08:36:37;;;;;;;13.80;12.02;;;5.80;99.90;;;;;;4896941;28;90179;-32
2022/01/15 08:39:08;;;;;;;19.23;11.18;;;5.80;99.90;;;;;;4898133;28;90296;-31
2022/01/15 08:41:34;;;;;;;12.10;10.18;;;5.80;99.90;;;;;;4897895;28;89605;-32
2022/01/15 08:44:00;;;;;;;12.50;11.15;;;5.80;99.90;;;;;;4905237;28;88175;-34
2022/01/15 08:46:25;;;;;;;14.32;11.15;;;5.80;99.90;;;;;;4911925;28;90016;-29
2022/01/15 08:48:52;;;;;;;16.45;11.98;;;5.80;99.90;;;;;;4911909;28;89758;-33
2022/01/15 08:51:18;;;;;;;13.88;11.07;;;5.70;99.90;;;;;;4906489;28;87989;-31
2022/01/15 08:53:43;;;;;;;15.27;10.93;;;5.70;99.90;;;;;;4841360;23;89770;-84
2022/01/15 08:56:12;;;;;;;19.30;14.45;;;5.70;99.90;;;;;;4915279;28;89169;-82
2022/01/15 08:58:38;;;;;;;18.05;11.98;;;5.70;99.90;;;;;;4916152;28;90309;-82
2022/01/15 09:01:13;;;;;;;19.75;13.52;;;5.80;99.90;;;;;;4858603;28;90866;-83
2022/01/15 09:03:42;;;;;;;19.80;15.05;;;5.80;99.90;;;;;;4800789;28;93207;-82
2022/01/15 09:06:09;;;;;;;20.92;14.63;;;5.80;99.90;;;;;;4956230;23;89550;-40
2022/01/15 09:08:36;;;;;;;22.88;13.52;;;5.80;99.90;;;;;;4907985;23;90292;-84
2022/01/15 09:11:03;;;;;;;21.48;15.40;;;5.80;99.90;;;;;;4897452;28;88283;-87
2022/01/15 09:13:31;;;;;;;21.35;15.77;;;5.80;99.90;;;;;;4897950;28;87655;-86
2022/01/15 09:15:57;;;;;;;;;;;5.80;99.90;;;;;;4898106;28;90689;-83
2022/01/15 09:18:26;;;;;;;20.45;14.35;;;5.80;99.90;;;;;;4042505;28;10000843;-86
2022/01/15 09:20:54;;;;;;;23.38;13.90;;;5.80;99.90;;;;;;4882448;28;89482;-85
2022/01/15 09:23:26;;;;;;;17.13;14.15;;;5.90;99.90;;;;;;4741587;28;345757;-84
2022/01/15 09:25:54;;;;;;;17.08;12.77;;;5.80;99.90;;;;;;4378397;28;12278341;-81
2022/01/15 09:51:51;;;;;;;11.05;9.70;;;6.10;99.90;;;;;;5015646;27;87917;-31
2022/01/15 09:54:18;;;;;;;13.48;10.05;;;6.00;99.90;;;;;;5031738;27;88099;-31
2022/01/15 09:56:44;;;;;;;11.75;10.57;;;6.00;99.90;;;;;;5037577;27;87744;-35
2022/01/15 09:59:10;;;;;;;13.33;11.70;;;6.00;99.90;;;;;;4160960;27;10001119;-31
2022/01/15 10:01:36;;;;;;;15.15;13.55;;;6.00;99.90;;;;;;5047866;27;88595;-31
2022/01/15 10:04:02;;;;;;;16.42;12.52;;;6.00;99.90;;;;;;5001024;27;87973;-35
2022/01/15 10:06:27;;;;;;;15.32;13.80;;;6.00;99.90;;;;;;5061795;27;88285;-31
2022/01/15 10:09:07;;;;;;;15.38;13.20;;;6.00;99.90;;;;;;5062423;27;88262;-32
2022/01/15 10:11:44;;;;;;;14.77;13.27;;;6.00;99.90;;;;;;5065260;27;88512;-30
2022/01/15 10:14:29;;;;;;;16.98;15.10;;;6.00;99.90;;;;;;5022915;27;90121;-31
2022/01/15 10:16:56;;;;;;;17.50;14.80;;;5.90;99.90;;;;;;5047563;27;89658;-30
2022/01/15 10:19:33;;;;;;;17.23;15.05;;;5.90;99.90;;;;;;5048373;27;88696;-33
2022/01/15 10:22:04;;;;;;;16.43;14.63;;;5.90;99.90;;;;;;5047772;27;88825;-31
2022/01/15 10:24:30;;;;;;;16.75;14.90;;;5.90;99.90;;;;;;5047563;27;90827;-35
2022/01/15 10:26:56;;;;;;;16.45;13.20;;;5.90;99.90;;;;;;5047428;27;89098;-34
2022/01/15 10:29:21;;;;;;;21.98;16.58;;;5.90;99.90;;;;;;5047266;27;87541;-33
2022/01/15 10:31:47;;;;;;;17.50;15.70;;;5.90;99.90;;;;;;5048105;27;89015;-34
2022/01/15 10:34:37;;;;;;;19.17;14.57;;;5.90;99.90;;;;;;5047509;27;90462;-32
2022/01/15 10:37:18;;;;;;;20.00;17.13;;;6.00;99.90;;;;;;5048095;27;90033;-31
2022/01/15 10:40:08;;;;;;;21.55;17.35;;;6.00;99.90;;;;;;5047346;27;87952;-30
2022/01/15 10:42:34;;;;;;;27.55;20.58;;;6.00;99.90;;;;;;5047543;27;87575;-30
2022/01/15 10:45:10;;;;;;;29.77;22.95;;;6.00;99.90;;;;;;5047377;27;90244;-30
2022/01/15 10:47:46;;;;;;;27.95;20.38;;;6.00;99.90;;;;;;5041071;27;89373;-32
2022/01/15 10:50:23;;;;;;;29.83;22.10;;;6.00;99.90;;;;;;5039743;27;89717;-35
2022/01/15 10:52:49;;;;;;;25.05;21.33;;;6.00;99.90;;;;;;5037069;27;89119;-31
2022/01/15 10:55:16;;;;;;;29.55;20.98;;;6.00;99.90;;;;;;5043172;27;91309;-34
2022/01/15 10:57:59;;;;;;;31.08;22.02;;;6.00;99.90;;;;;;5043339;27;91450;-33
2022/01/15 11:00:28;;;;;;;28.80;23.38;;;6.10;99.90;;;;;;5043115;27;88513;-33
2022/01/15 11:13:47;;;;;;;30.25;21.55;;;6.10;99.90;;;;;;5030787;27;89323;-35
2022/01/15 11:42:49;;;;;;;27.98;21.80;;;6.00;99.90;;;;;;4761752;28;88484;-30
2022/01/15 11:45:35;;;;;;;26.02;18.42;;;6.10;99.90;;;;;;4753856;28;89255;-33
2022/01/15 11:48:27;;;;;;;21.92;17.08;;;6.20;99.90;;;;;;4857095;28;88691;-33
2022/01/15 11:51:14;;;;;;;18.85;16.75;;;6.20;99.90;;;;;;4858802;28;87620;-31
2022/01/15 11:53:54;;;;;;;24.20;18.40;;;6.10;99.90;;;;;;4859232;28;90727;-31
2022/01/15 11:56:24;;;;;;;22.67;16.58;;;6.10;99.90;;;;;;4842360;28;89533;-33
2022/01/15 11:58:50;;;;;;;15.82;14.15;;;6.00;99.90;;;;;;4858968;28;88418;-34
2022/01/15 12:01:34;;;;;;;18.70;14.88;;;6.00;99.90;;;;;;4859089;28;87968;-33
2022/01/15 12:04:22;;;;;;;19.23;15.40;;;5.90;99.90;;;;;;4858804;28;90036;-33
2022/01/15 12:07:06;;;;;;;19.20;15.20;;;5.90;99.90;;;;;;4859712;28;89190;-31
2022/01/15 12:09:34;;;;;;;19.80;16.17;;;5.90;99.90;;;;;;4858357;28;88876;-34
2022/01/15 12:12:02;;;;;;;18.45;14.95;;;5.90;99.90;;;;;;4859578;28;87714;-34
2022/01/15 12:14:49;;;;;;;18.92;15.07;;;5.90;99.90;;;;;;4858852;28;90635;-34
2022/01/15 12:17:39;;;;;;;18.05;13.98;;;5.90;99.90;;;;;;4859066;28;89669;-30
2022/01/15 12:20:31;;;;;;;17.00;14.30;;;5.90;99.90;;;;;;4859395;28;88623;-34
2022/01/15 12:23:01;;;;;;;17.65;14.85;;;5.90;99.90;;;;;;4859555;28;87665;-30
2022/01/15 12:25:26;;;;;;;18.58;14.65;;;5.80;99.90;;;;;;4858987;28;90838;-31
2022/01/15 12:28:06;;;;;;;23.50;18.02;;;5.90;99.90;;;;;;4859108;28;90200;-31
2022/01/15 12:30:34;;;;;;;21.17;15.98;;;5.90;99.90;;;;;;4858208;28;88168;-32
2022/01/15 12:33:03;;;;;;;22.15;16.60;;;6.00;99.90;;;;;;4859460;28;88221;-32
2022/01/15 12:35:34;;;;;;;22.70;18.98;;;6.00;99.90;;;;;;4859330;28;90454;-33
2022/01/15 12:38:09;;;;;;;25.80;18.48;;;5.90;99.90;;;;;;4859504;28;89197;-32
2022/01/15 12:40:47;;;;;;;20.88;18.05;;;5.90;99.90;;;;;;4856851;28;89340;-33
2022/01/15 12:43:17;;;;;;;21.03;16.77;;;5.90;99.90;;;;;;4846800;28;88551;-31
2022/01/15 12:45:45;;;;;;;21.70;17.42;;;5.90;99.90;;;;;;4846230;28;90269;-32
2022/01/15 12:48:15;;;;;;;17.40;15.57;;;6.00;99.90;;;;;;4846605;28;89766;-34
2022/01/15 12:50:51;;;;;;;21.98;18.55;;;5.90;99.90;;;;;;4844521;29;88291;-34
2022/01/15 12:53:18;;;;;;;19.77;16.23;;;5.90;99.90;;;;;;4846299;29;87915;-31
2022/01/15 12:55:44;;;;;;;20.10;17.48;;;5.90;99.90;;;;;;4845819;29;90309;-32
2022/01/15 12:58:13;;;;;;;21.98;18.70;;;5.90;99.90;;;;;;4846969;29;90143;-31
2022/01/15 13:00:39;;;;;;;19.95;16.83;;;5.90;99.90;;;;;;4845905;29;88405;-34
2022/01/15 13:03:13;;;;;;;20.42;17.58;;;5.90;99.90;;;;;;4846897;28;88380;-33
2022/01/15 13:05:41;;;;;;;18.75;16.63;;;5.90;99.90;;;;;;4846044;29;90476;-30
2022/01/15 13:08:15;;;;;;;20.50;17.77;;;5.90;99.90;;;;;;4846111;28;89902;-32
2022/01/15 13:10:53;;;;;;;21.77;19.40;;;5.90;99.90;;;;;;4845904;28;88453;-31
2022/01/15 13:13:27;;;;;;;23.45;16.85;;;5.80;99.90;;;;;;4846666;29;89160;-33
2022/01/15 13:16:12;;;;;;;19.77;16.83;;;5.90;99.90;;;;;;4846225;29;90692;-32
2022/01/15 13:18:43;;;;;;;19.45;16.00;;;5.90;99.90;;;;;;4810167;28;89987;-32
2022/01/15 13:21:14;;;;;;;21.55;16.48;;;5.90;99.90;;;;;;4816217;29;88804;-34
2022/01/15 13:23:53;;;;;;;18.38;16.20;;;5.90;99.90;;;;;;4829499;29;88450;-35
2022/01/15 13:26:34;;;;;;;18.05;14.95;;;5.90;99.90;;;;;;4846667;28;90458;-31
2022/01/15 13:29:05;;;;;;;18.52;16.55;;;5.90;99.90;;;;;;4846296;29;89692;-32
2022/01/15 13:31:33;;;;;;;20.25;16.50;;;5.80;99.90;;;;;;4845802;29;87632;-33
2022/01/15 13:34:29;;;;;;;21.45;17.67;;;5.80;99.90;;;;;;4845831;28;88461;-34
2022/01/15 13:37:05;;;;;;;20.60;15.50;;;5.90;99.90;;;;;;4845982;29;89508;-33
2022/01/15 13:39:30;;;;;;;20.67;17.02;;;5.80;99.90;;;;;;4842855;29;90167;-31
2022/01/15 13:41:56;;;;;;;22.95;16.23;;;5.80;99.90;;;;;;4845178;29;88293;-32
2022/01/15 13:44:23;;;;;;;20.05;17.25;;;5.80;99.90;;;;;;4846040;28;89168;-32
2022/01/15 13:46:50;;;;;;;18.42;16.33;;;5.90;99.90;;;;;;4844999;28;90920;-32
2022/01/15 13:49:20;;;;;;;19.20;17.13;;;5.90;99.90;;;;;;4845630;29;90193;-32
2022/01/15 13:54:37;;;;;;;20.30;18.13;;;5.90;99.90;;;;;;4844488;29;88537;-32
2022/01/15 13:57:13;;;;;;;18.85;16.17;;;5.80;99.90;;;;;;4845658;29;90296;-33
2022/01/15 13:59:40;;;;;;;20.58;17.88;;;5.90;99.90;;;;;;4844712;29;90251;-34
2022/01/15 14:02:06;;;;;;;19.77;16.90;;;5.90;99.90;;;;;;4845592;29;89112;-32
2022/01/15 14:04:36;;;;;;;20.63;18.08;;;5.90;99.90;;;;;;4845043;29;88663;-31
2022/01/15 14:07:03;;;;;;;19.20;17.13;;;5.90;99.90;;;;;;4845433;28;90122;-32
2022/01/15 14:09:30;;;;;;;23.65;18.45;;;5.80;99.90;;;;;;4845489;29;89678;-32
2022/01/15 14:12:00;;;;;;;19.10;17.08;;;5.80;99.90;;;;;;4844959;28;87730;-35
2022/01/15 14:14:27;;;;;;;21.40;18.55;;;5.80;99.90;;;;;;4847075;28;87579;-31
2022/01/15 14:17:03;;;;;;;24.58;20.90;;;5.70;99.90;;;;;;4861794;28;90258;-34
2022/01/15 14:19:49;;;;;;;19.17;17.25;;;5.70;99.90;;;;;;4875217;28;90036;-32
2022/01/15 14:22:23;;;;;;;21.20;18.95;;;5.80;99.90;;;;;;4850236;28;88124;-32